Annexe

Disponible uniquement sur Etudier
  • Pages : 12 (2752 mots )
  • Téléchargement(s) : 0
  • Publié le : 30 novembre 2011
Lire le document complet
Aperçu du document
* 10 Annexes :

Annexe [ 1 ] : Evolution de l’humidité relative sous serre en %

Annexe [ 2 ] : Evolution de la température sous serre en C°

Annexe [ 3 ] : Calculs des apports en eau par rayonnement globale
 jours | RG (J/cm2) | t | ET0 | KC | ETM (mm/jour) | ETM (L/plante/jour)) |
05/09/2011 | 858,6 | 0,00187 | 1,61 | 0,6 | 0,96 | 0,96 |
06/09/2011 | 873,7 | 0,00187 | 1,63 |0,6 | 0,98 | 0,98 |
07/09/2011 | 852,7 | 0,00187 | 1,59 | 0,6 | 0,96 | 0,96 |
08/09/2011 | 850,2 | 0,00187 | 1,59 | 0,6 | 0,95 | 0,95 |
 09/09/2011 | 853,7 | 0,00187 | 1,60 | 0,6 | 0,96 | 0,96 |
 10/09/2011 | 717,7 | 0,00187 | 1,34 | 0,6 | 0,81 | 0,81 |
 11/09/2011 | 808,8 | 0,00187 | 1,51 | 0,6 | 0,91 | 0,91 |
 12/09/2011 | 874,2 | 0,00187 | 1,63 | 0,6 | 0,98 | 0,98 | 13/09/2011 | 830,3 | 0,00187 | 1,55 | 0,6 | 0,93 | 0,93 |
 14/09/2011 | 856,2 | 0,00187 | 1,60 | 0,6 | 0,96 | 0,96 |
 15/09/2011 | 822,5 | 0,00187 | 1,54 | 0,6 | 0,92 | 0,92 |
 16/09/2011 | 890,8 | 0,00187 | 1,67 | 0,6 | 1,00 | 1,00 |
 17/09/2011 | 836,1 | 0,00187 | 1,56 | 0,6 | 0,94 | 0,94 |
 18/09/2011 | 899,1 | 0,00187 | 1,68 | 0,6 | 1,01 | 1,01 |
 19/09/2011 | 842 | 0,00187 |1,57 | 0,6 | 0,94 | 0,94 |
 20/09/2011 | 843 | 0,00187 | 1,58 | 0,6 | 0,95 | 0,95 |
 21/09/2011 | 839,1 | 0,00187 | 1,57 | 0,6 | 0,94 | 0,94 |
 22/09/2011 | 877,2 | 0,00187 | 1,64 | 0,6 | 0,98 | 0,98 |
 23/09/2011 | 849,8 | 0,00187 | 1,59 | 0,6 | 0,95 | 0,95 |
 24/09/2011 | 820,5 | 0,00187 | 1,53 | 0,8 | 1,23 | 1,23 |
 25/09/2011 | 878,6 | 0,00187 | 1,64 | 0,8 | 1,31 | 1,31 | 26/09/2011 | 812,2 | 0,00187 | 1,52 | 0,8 | 1,22 | 1,22 |
 27/09/2011 | 800,5 | 0,00187 | 1,50 | 0,8 | 1,20 | 1,20 |
 28/09/2011 | 685,2 | 0,00187 | 1,28 | 0,8 | 1,03 | 1,03 |
 29/09/2011 | 776,6 | 0,00187 | 1,45 | 0,8 | 1,16 | 1,16 |
 30/09/2011 | 852,3 | 0,00187 | 1,59 | 0,8 | 1,28 | 1,28 |
 01/10/2011 | 818,6 | 0,00187 | 1,53 | 0,8 | 1,22 | 1,22 |
 02/10/2011 | 795,6 | 0,00187 | 1,49 | 0,95| 1,41 | 1,41 |
 03/10/2011 | 819,5 | 0,00187 | 1,53 | 0,95 | 1,46 | 1,46 |

La suite de l’annexe 3
 04/10/2011 | 830,3 | 0,00187 | 1,55 | 0,95 | 1,48 | 1,48 |
 05/10/2011 | 789,3 | 0,00187 | 1,48 | 0,95 | 1,40 | 1,40 |
 06/10/2011 | 788,8 | 0,00187 | 1,48 | 0,95 | 1,40 | 1,40 |
 07/10/2011 | 784,4 | 0,00187 | 1,47 | 0,95 | 1,39 | 1,39 |
 08/10/2011 | 769,2 | 0,00187 | 1,44 | 0,95 |1,37 | 1,37 |
 09/10/2011 | 767,8 | 0,00187 | 1,44 | 0,95 | 1,36 | 1,36 |
 10/10/2011 | 767,3 | 0,00187 | 1,43 | 0,95 | 1,36 | 1,36 |
 11/10/2011 | 773,1 | 0,00187 | 1,45 | 0,95 | 1,37 | 1,37 |
 12/10/2011 | 770,7 | 0,00187 | 1,44 | 0,95 | 1,37 | 1,37 |
 13/10/2011 | 762,9 | 0,00187 | 1,43 | 0,95 | 1,36 | 1,36 |
 14/10/2011 | 762,9 | 0,00187 | 1,43 | 0,95 | 1,36 | 1,36 |
 15/10/2011| 756 | 0,00187 | 1,41 | 0,95 | 1,34 | 1,34 |
 16/10/2011 | 752,6 | 0,00187 | 1,41 | 0,95 | 1,34 | 1,34 |
 17/10/2011 | 754,1 | 0,00187 | 1,41 | 0,95 | 1,34 | 1,34 |
 18/10/2011 | 783,4 | 0,00187 | 1,46 | 0,95 | 1,39 | 1,39 |
 19/10/2011 | 725,8 | 0,00187 | 1,36 | 0,95 | 1,29 | 1,29 |
 20/10/2011 | 752,1 | 0,00187 | 1,41 | 0,95 | 1,34 | 1,34 |

Annexe [ 4 ] : Rendement par parcellepour la culture du haricot
Rendement par parcelle en KG |
Serre | Culture | Variété | Rendement | Export | % Ecart |
9 | Haricot vert | ESTEFANIA | 34900 | 30712 | 12% |
10 | Haricot vert | ESTEFANIA | 33003 | 26732 | 19% |
11 | Haricot vert | ESTEFANIA | 26987 | 21589 | 20% |
12 | Haricot vert | ESTEFANIA | 32890 | 24667,5 | 25% |

Annexe [ 5 ] : Quantité d’engrais apportée pour leharicot dans la ferme 36 (Variété ESTEPHANIA)
 Stade de la plante | Désignations | Quantité en Kg/Ha | Bac | EC | PH |
  | Nitrate de chaux | 198 | 1 | 1,62 | 6 |
  | Fer | 3 | 1 | 1,62 | 6 |
Haricot Stade Démarrage | Oligo- éléments | 6 | 1 | 1,62 | 6 |
  | Sulfate de potasse | 117 | 4 | 1,62 | 6 |
  | Nitrate de potasse | 270 | 4 | 1,62 | 6 |
  | MAP | 103 | 4 | 1,62 | 6 |
  |...
tracking img